createdAt,value
2023-09-10T00:02:16.909Z,100062.38
2023-09-10T00:04:43.670Z,100066.81
2023-09-10T00:07:10.398Z,100069.63
2023-09-10T00:09:36.905Z,100069.94
2023-09-10T00:12:03.558Z,100065.09
2023-09-10T00:14:30.140Z,100055.03
2023-09-10T00:16:56.822Z,100060.66
2023-09-10T00:19:23.396Z,100062.66
2023-09-10T00:21:49.922Z,100056.25
2023-09-10T00:24:16.580Z,100055.81
2023-09-10T00:26:44.533Z,100056.19
2023-09-10T00:29:11.243Z,100059.41
2023-09-10T00:31:37.971Z,100054.53
2023-09-10T00:34:04.787Z,100049.75
2023-09-10T00:36:31.298Z,100062.16
2023-09-10T00:38:57.988Z,100054.53
2023-09-10T00:41:24.537Z,100058.06
2023-09-10T00:43:52.987Z,100064.13
2023-09-10T00:46:19.583Z,100056.47
2023-09-10T00:48:46.552Z,100058.81
2023-09-10T00:51:13.301Z,100062.84
2023-09-10T00:53:40.807Z,100064.34
2023-09-10T00:56:07.751Z,100063.13
2023-09-10T00:58:35.026Z,100059.59
2023-09-10T01:01:01.928Z,100065.13
2023-09-10T01:03:31.020Z,100067.88
2023-09-10T01:05:57.820Z,100070.28
2023-09-10T01:08:25.437Z,100070.22
2023-09-10T01:11:40.489Z,100066.25
2023-09-10T01:14:18.735Z,100069.38
2023-09-10T01:17:10.305Z,100060.91
2023-09-10T01:19:41.112Z,100064.88
2023-09-10T01:22:22.797Z,100053.66
2023-09-10T01:24:51.397Z,100070.09
2023-09-10T01:27:18.753Z,100059.69
2023-09-10T01:29:45.895Z,100062.50
2023-09-10T01:32:31.246Z,100065.78
2023-09-10T01:35:04.793Z,100060.59
2023-09-10T01:37:42.510Z,100058.56
2023-09-10T01:40:10.585Z,100059.81
2023-09-10T01:42:38.024Z,100061.06
2023-09-10T01:45:05.664Z,100062.69
2023-09-10T01:47:33.199Z,100060.91
2023-09-10T01:50:00.110Z,100053.75
2023-09-10T01:52:26.872Z,100058.97
2023-09-10T01:54:53.649Z,100054.56
2023-09-10T01:57:20.749Z,100060.19
2023-09-10T01:59:47.480Z,100065.34
2023-09-10T02:02:15.039Z,100058.47
2023-09-10T02:04:42.380Z,100066.88
2023-09-10T02:07:09.184Z,100064.84
2023-09-10T02:09:36.082Z,100059.97
2023-09-10T02:12:02.996Z,100057.91
2023-09-10T02:14:29.630Z,100056.69
2023-09-10T02:16:56.466Z,100061.06
2023-09-10T02:19:23.244Z,100057.78
2023-09-10T02:21:51.283Z,100060.88
2023-09-10T02:24:17.910Z,100058.84
2023-09-10T02:26:44.610Z,100066.06
2023-09-10T02:29:11.307Z,100056.03
2023-09-10T02:31:38.470Z,100062.44
2023-09-10T02:34:05.765Z,100054.38
2023-09-10T02:36:32.475Z,100056.00
2023-09-10T02:38:59.560Z,100062.78
2023-09-10T02:41:26.217Z,100059.19
2023-09-10T02:43:52.909Z,100061.16
2023-09-10T02:46:19.560Z,100064.31
2023-09-10T02:48:46.089Z,100058.28
2023-09-10T02:51:12.791Z,100059.84
2023-09-10T02:53:39.305Z,100062.19
2023-09-10T02:56:05.905Z,100065.41
2023-09-10T02:58:33.367Z,100072.63
2023-09-10T03:01:05.083Z,100074.97
2023-09-10T03:03:35.126Z,100071.34
2023-09-10T03:06:01.964Z,100076.13
2023-09-10T03:08:28.570Z,100065.31
2023-09-10T03:10:55.240Z,100072.13
2023-09-10T03:13:21.773Z,100070.06
2023-09-10T03:15:49.473Z,100069.66
2023-09-10T03:18:16.221Z,100057.22
2023-09-10T03:20:42.812Z,100058.03
2023-09-10T03:23:10.176Z,100066.88
2023-09-10T03:25:39.221Z,100065.66
2023-09-10T03:28:06.340Z,100062.03
2023-09-10T03:30:33.092Z,100058.00
2023-09-10T03:32:59.707Z,100064.38
2023-09-10T03:35:26.358Z,100059.53
2023-09-10T03:37:53.140Z,100063.91
2023-09-10T03:40:19.945Z,100064.69
2023-09-10T03:42:46.573Z,100063.41
2023-09-10T03:45:13.098Z,100065.03
2023-09-10T03:47:39.817Z,100060.66
2023-09-10T03:50:06.747Z,100063.78
2023-09-10T03:52:33.247Z,100064.97
2023-09-10T03:54:59.737Z,100065.41
2023-09-10T03:57:27.096Z,100070.47
2023-09-10T03:59:53.583Z,100069.66
2023-09-10T04:02:20.655Z,100073.28
2023-09-10T04:04:47.831Z,100069.66
2023-09-10T04:07:14.649Z,100070.00
2023-09-10T04:09:42.792Z,100083.94
2023-09-10T04:12:09.442Z,100080.75
2023-09-10T04:14:36.180Z,100076.69
2023-09-10T04:17:03.116Z,100082.28
2023-09-10T04:19:29.682Z,100078.53
2023-09-10T04:21:56.569Z,100072.22
2023-09-10T04:24:24.664Z,100079.00
2023-09-10T04:26:51.394Z,100080.19
2023-09-10T04:29:17.974Z,100084.53
2023-09-10T04:31:44.944Z,100084.19
2023-09-10T04:34:11.599Z,100088.59
2023-09-10T04:36:38.221Z,100094.16
2023-09-10T04:39:09.708Z,100098.91
2023-09-10T04:41:37.142Z,100093.69
2023-09-10T04:44:04.390Z,100090.50
2023-09-10T04:46:31.209Z,100089.66
2023-09-10T04:49:00.584Z,100097.72
2023-09-10T04:51:27.172Z,100097.78
2023-09-10T04:53:55.306Z,100101.06
2023-09-10T04:56:22.113Z,100104.34
2023-09-10T04:58:48.826Z,100107.09
2023-09-10T05:01:15.939Z,100106.63
2023-09-10T05:03:42.973Z,100109.44
2023-09-10T05:06:10.402Z,100100.69
2023-09-10T05:08:37.285Z,100110.72
2023-09-10T05:11:04.203Z,100118.84
2023-09-10T05:13:30.812Z,100108.81
2023-09-10T05:15:58.677Z,100110.09
2023-09-10T05:18:26.026Z,100116.47
2023-09-10T05:20:54.005Z,100118.13
2023-09-10T05:23:23.264Z,100114.72
2023-09-10T05:25:50.646Z,100112.38
2023-09-10T05:28:17.941Z,100115.78
2023-09-10T05:30:44.692Z,100112.75
2023-09-10T05:33:11.477Z,100111.19
2023-09-10T05:35:38.063Z,100118.63
2023-09-10T05:38:04.788Z,100123.81
2023-09-10T05:40:37.729Z,100128.03
2023-09-10T05:43:07.390Z,100130.41
2023-09-10T05:45:34.843Z,100130.13
2023-09-10T05:48:01.613Z,100132.16
2023-09-10T05:50:28.288Z,100126.22
2023-09-10T05:52:57.501Z,100137.84
2023-09-10T05:55:25.450Z,100131.97
2023-09-10T05:57:55.171Z,100133.75
2023-09-10T06:00:22.992Z,100131.66
2023-09-10T06:02:50.549Z,100139.16
2023-09-10T06:05:17.563Z,100128.91
2023-09-10T06:07:44.861Z,100133.03
2023-09-10T06:10:11.518Z,100140.72
2023-09-10T06:12:38.513Z,100139.91
2023-09-10T06:15:08.775Z,100143.78
2023-09-10T06:17:36.776Z,100139.22
2023-09-10T06:20:05.175Z,100143.03
2023-09-10T06:22:32.089Z,100137.16
2023-09-10T06:24:58.715Z,100144.06
2023-09-10T06:27:25.300Z,100146.22
2023-09-10T06:29:51.805Z,100144.81
2023-09-10T06:32:18.394Z,100150.63
2023-09-10T06:34:44.997Z,100147.88
2023-09-10T06:37:11.659Z,100146.72
2023-09-10T06:39:41.177Z,100150.25
2023-09-10T06:42:14.310Z,100146.72
2023-09-10T06:44:43.828Z,100143.81
2023-09-10T06:47:11.457Z,100142.66
2023-09-10T06:49:40.704Z,100144.41
2023-09-10T06:52:09.913Z,100153.63
2023-09-10T06:54:36.446Z,100158.31
2023-09-10T06:57:03.225Z,100155.94
2023-09-10T06:59:29.696Z,100161.53
2023-09-10T07:01:56.257Z,100164.78
2023-09-10T07:04:24.623Z,100154.53
2023-09-10T07:06:52.626Z,100157.28
2023-09-10T07:09:24.444Z,100154.81
2023-09-10T07:11:52.474Z,100156.53
2023-09-10T07:14:20.176Z,100164.59
2023-09-10T07:16:48.750Z,100168.63
2023-09-10T07:19:15.983Z,100169.03
2023-09-10T07:21:42.659Z,100171.66
2023-09-10T07:24:10.706Z,100161.59
2023-09-10T07:26:38.014Z,100161.25
2023-09-10T07:29:08.438Z,100166.50
2023-09-10T07:31:35.500Z,100160.97
2023-09-10T07:34:03.166Z,100156.81
2023-09-10T07:36:29.930Z,100158.16
2023-09-10T07:38:56.494Z,100153.44
2023-09-10T07:41:23.471Z,100148.06
2023-09-10T07:43:50.406Z,100152.19
2023-09-10T07:46:16.972Z,100144.00
2023-09-10T07:48:43.486Z,100147.19
2023-09-10T07:51:10.032Z,100150.59
2023-09-10T07:53:36.618Z,100148.75
2023-09-10T07:56:04.909Z,100148.19
2023-09-10T07:58:31.597Z,100162.06
2023-09-10T08:00:58.556Z,100166.09
2023-09-10T08:03:25.223Z,100162.19
2023-09-10T08:05:51.945Z,100166.63
2023-09-10T08:08:19.446Z,100163.69
2023-09-10T08:10:46.885Z,100155.75
2023-09-10T08:13:13.888Z,100167.69
2023-09-10T08:15:43.723Z,100164.38
2023-09-10T08:18:12.546Z,100166.88
2023-09-10T08:20:41.090Z,100158.72
2023-09-10T08:23:08.414Z,100160.13
2023-09-10T08:25:35.493Z,100157.06
2023-09-10T08:28:02.816Z,100156.78
2023-09-10T08:30:29.585Z,100156.88
2023-09-10T08:32:56.179Z,100163.13
2023-09-10T08:35:23.725Z,100167.94
2023-09-10T08:37:50.615Z,100170.00
2023-09-10T08:40:17.791Z,100160.63
2023-09-10T08:42:56.584Z,100167.25
2023-09-10T08:45:23.567Z,100155.84
2023-09-10T08:47:55.374Z,100155.44
2023-09-10T08:50:22.260Z,100152.59
2023-09-10T08:52:50.000Z,100160.59
2023-09-10T08:55:18.332Z,100159.72
2023-09-10T08:57:46.402Z,100158.16
2023-09-10T09:00:14.053Z,100162.34
2023-09-10T09:02:41.929Z,100155.78
2023-09-10T09:05:08.842Z,100154.72
2023-09-10T09:07:41.275Z,100156.25
2023-09-10T09:10:09.497Z,100152.34
2023-09-10T09:12:38.388Z,100149.50
2023-09-10T09:15:05.527Z,100151.03
2023-09-10T09:17:33.478Z,100145.66
2023-09-10T09:20:00.833Z,100151.53
2023-09-10T09:22:29.285Z,100158.13
2023-09-10T09:24:56.590Z,100153.91
2023-09-10T09:27:24.916Z,100161.84
2023-09-10T09:29:51.687Z,100153.72
2023-09-10T09:32:18.353Z,100160.06
2023-09-10T09:34:44.912Z,100159.53
2023-09-10T09:37:11.479Z,100162.72
2023-09-10T09:39:39.300Z,100162.66
2023-09-10T09:42:06.265Z,100152.84
2023-09-10T09:44:32.792Z,100149.47
2023-09-10T09:46:59.431Z,100141.78
2023-09-10T09:49:26.747Z,100148.78
2023-09-10T09:51:53.398Z,100144.75
2023-09-10T09:54:20.632Z,100144.19
2023-09-10T09:56:47.511Z,100141.41
2023-09-10T09:59:14.035Z,100139.19
2023-09-10T10:01:40.826Z,100141.56
2023-09-10T10:04:07.935Z,100135.50
2023-09-10T10:06:46.450Z,100139.91
2023-09-10T10:09:15.899Z,100130.13
2023-09-10T10:11:42.673Z,100125.53
2023-09-10T10:14:10.701Z,100114.75
2023-09-10T10:16:38.703Z,100116.63
2023-09-10T10:19:06.752Z,100117.97
2023-09-10T10:21:33.405Z,100120.47
2023-09-10T10:24:00.859Z,100115.06
2023-09-10T10:26:28.175Z,100111.28
2023-09-10T10:28:55.125Z,100118.84
2023-09-10T10:31:30.540Z,100116.56
2023-09-10T10:34:18.791Z,100114.84
2023-09-10T10:37:17.147Z,100103.09
2023-09-10T10:40:02.166Z,100092.19
2023-09-10T10:42:34.899Z,100102.53
2023-09-10T10:45:02.333Z,100096.63
2023-09-10T10:47:31.163Z,100093.81
2023-09-10T10:49:58.228Z,100085.09
2023-09-10T10:52:32.265Z,100083.50
2023-09-10T10:54:59.546Z,100084.34
2023-09-10T10:57:26.997Z,100083.09
2023-09-10T10:59:53.682Z,100091.72
2023-09-10T11:02:24.669Z,100093.88
2023-09-10T11:04:59.428Z,100093.16
2023-09-10T11:07:30.894Z,100087.69
2023-09-10T11:09:58.943Z,100094.31
2023-09-10T11:12:26.346Z,100082.94
2023-09-10T11:15:01.599Z,100092.19
2023-09-10T11:17:36.444Z,100086.25
2023-09-10T11:20:07.942Z,100079.69
2023-09-10T11:23:12.952Z,100067.44
2023-09-10T11:25:40.377Z,100069.63
2023-09-10T11:28:45.275Z,100069.72
2023-09-10T11:31:41.408Z,100066.28
2023-09-10T11:34:21.190Z,100057.78
2023-09-10T11:36:55.563Z,100056.09
2023-09-10T11:39:22.902Z,100060.53
2023-09-10T11:41:51.712Z,100054.63
2023-09-10T11:44:18.443Z,100058.47
2023-09-10T11:46:47.401Z,100050.53
2023-09-10T11:49:15.186Z,100059.75
2023-09-10T11:51:46.572Z,100055.34
2023-09-10T11:54:17.753Z,100049.91
2023-09-10T11:56:45.855Z,100049.34
2023-09-10T11:59:14.848Z,100051.59
2023-09-10T12:01:42.219Z,100044.44
2023-09-10T12:04:08.897Z,100048.22
2023-09-10T12:06:35.743Z,100042.53
2023-09-10T12:09:02.258Z,100038.94
2023-09-10T12:11:29.877Z,100041.34
2023-09-10T12:13:56.609Z,100031.88
2023-09-10T12:16:23.365Z,100033.63
2023-09-10T12:18:49.947Z,100034.50
2023-09-10T12:21:18.349Z,100036.44
2023-09-10T12:23:44.986Z,100032.88
2023-09-10T12:26:13.071Z,100035.25
2023-09-10T12:28:40.030Z,100038.22
2023-09-10T12:31:06.707Z,100027.97
2023-09-10T12:33:33.304Z,100022.31
2023-09-10T12:36:02.214Z,100028.56
2023-09-10T12:38:29.883Z,100026.38
2023-09-10T12:40:56.810Z,100023.34
2023-09-10T12:43:24.556Z,100018.97
2023-09-10T12:45:51.686Z,100019.53
2023-09-10T12:48:21.826Z,100028.50
2023-09-10T12:50:49.121Z,100022.59
2023-09-10T12:53:15.724Z,100027.22
2023-09-10T12:55:42.638Z,100017.66
2023-09-10T12:58:13.342Z,100017.69
2023-09-10T13:00:40.610Z,100017.88
2023-09-10T13:03:07.553Z,100012.78
2023-09-10T13:05:34.525Z,100017.47
2023-09-10T13:08:01.388Z,100016.75
2023-09-10T13:10:27.889Z,100010.06
2023-09-10T13:12:54.365Z,100001.41
2023-09-10T13:15:20.901Z,100007.00
2023-09-10T13:17:47.504Z,100005.38
2023-09-10T13:20:14.256Z,100001.53
2023-09-10T13:22:41.194Z,100002.22
2023-09-10T13:25:08.612Z,100004.81
2023-09-10T13:27:35.049Z,99995.53
2023-09-10T13:30:01.677Z,99997.22
2023-09-10T13:32:28.367Z,99990.75
2023-09-10T13:34:54.972Z,99994.13
2023-09-10T13:37:22.193Z,99988.84
2023-09-10T13:39:48.748Z,99989.34
2023-09-10T13:42:15.254Z,99984.13
2023-09-10T13:44:41.767Z,99989.59
2023-09-10T13:47:08.736Z,99985.38
2023-09-10T13:49:35.213Z,99989.50
2023-09-10T13:52:01.689Z,99983.38
2023-09-10T13:54:28.180Z,99990.34
2023-09-10T13:56:55.426Z,99984.28
2023-09-10T13:59:22.073Z,99979.22
2023-09-10T14:01:49.815Z,99982.22
2023-09-10T14:04:16.662Z,99988.41
2023-09-10T14:06:43.133Z,99980.28
2023-09-10T14:09:09.616Z,99977.56
2023-09-10T14:11:36.170Z,99980.69
2023-09-10T14:14:03.179Z,99971.50
2023-09-10T14:16:29.780Z,99969.69
2023-09-10T14:18:57.444Z,99979.13
2023-09-10T14:21:24.313Z,99976.28
2023-09-10T14:23:50.960Z,99977.88
2023-09-10T14:26:17.601Z,99984.97
2023-09-10T14:28:44.071Z,99980.25
2023-09-10T14:31:10.668Z,99973.63
2023-09-10T14:33:37.568Z,99972.09
2023-09-10T14:36:04.640Z,99971.03
2023-09-10T14:38:31.384Z,99973.63
2023-09-10T14:40:57.968Z,99963.13
2023-09-10T14:43:25.072Z,99968.81
2023-09-10T14:45:51.603Z,99971.78
2023-09-10T14:48:18.148Z,99966.00
2023-09-10T14:50:44.652Z,99962.31
2023-09-10T14:53:11.274Z,99966.72
2023-09-10T14:55:38.248Z,99957.16
2023-09-10T15:00:34.192Z,99961.66
2023-09-10T15:03:01.243Z,99958.31
2023-09-10T15:05:28.112Z,99952.88
2023-09-10T15:07:54.727Z,99951.28
2023-09-10T15:10:22.731Z,99948.38
2023-09-10T15:12:49.202Z,99942.75
2023-09-10T15:15:15.784Z,99944.25
2023-09-10T15:17:42.323Z,99944.22
2023-09-10T15:20:09.881Z,99947.16
2023-09-10T15:22:36.542Z,99945.03
2023-09-10T15:25:04.169Z,99930.13
2023-09-10T15:27:31.080Z,99927.97
2023-09-10T15:29:57.730Z,99935.91
2023-09-10T15:32:24.551Z,99923.31
2023-09-10T15:34:51.307Z,99927.06
2023-09-10T15:37:17.793Z,99928.38
2023-09-10T15:39:44.265Z,99925.72
2023-09-10T15:42:10.865Z,99917.69
2023-09-10T15:44:37.565Z,99924.44
2023-09-10T15:47:05.215Z,99932.81
2023-09-10T15:49:32.113Z,99932.38
2023-09-10T15:51:59.253Z,99930.03
2023-09-10T15:54:25.885Z,99933.59
2023-09-10T15:56:52.616Z,99930.94
2023-09-10T15:59:19.183Z,99923.97
2023-09-10T16:01:45.841Z,99927.31
2023-09-10T16:04:12.512Z,99928.56
2023-09-10T16:06:39.123Z,99927.53
2023-09-10T16:09:07.153Z,99922.22
2023-09-10T16:11:34.122Z,99921.28
2023-09-10T16:14:00.753Z,99927.28
2023-09-10T16:16:28.306Z,99924.63
2023-09-10T16:18:59.431Z,99928.56
2023-09-10T16:21:27.431Z,99925.47
2023-09-10T16:23:54.246Z,99924.66
2023-09-10T16:26:20.821Z,99930.56
2023-09-10T16:28:47.642Z,99928.84
2023-09-10T16:31:14.844Z,99929.28
2023-09-10T16:33:41.700Z,99926.88
2023-09-10T16:36:08.473Z,99925.19
2023-09-10T16:38:35.153Z,99926.56
2023-09-10T16:41:01.904Z,99929.41
2023-09-10T16:43:28.370Z,99931.56
2023-09-10T16:45:55.512Z,99934.50
2023-09-10T16:48:22.194Z,99936.97
2023-09-10T16:50:49.011Z,99936.22
2023-09-10T16:53:15.639Z,99929.22
2023-09-10T16:55:42.625Z,99932.56
2023-09-10T16:58:09.219Z,99932.69
2023-09-10T17:00:36.587Z,99932.97
2023-09-10T17:03:03.359Z,99931.00
2023-09-10T17:05:30.426Z,99945.56
2023-09-10T17:08:03.495Z,99931.81
2023-09-10T17:10:30.379Z,99936.91
2023-09-10T17:12:56.941Z,99930.13
2023-09-10T17:15:23.621Z,99939.00
2023-09-10T17:17:50.159Z,99929.44
2023-09-10T17:20:16.892Z,99924.06
2023-09-10T17:22:44.713Z,99928.06
2023-09-10T17:25:11.392Z,99936.69
2023-09-10T17:27:38.779Z,99931.06
2023-09-10T17:30:06.022Z,99932.38
2023-09-10T17:32:32.749Z,99932.28
2023-09-10T17:34:59.656Z,99929.69
2023-09-10T17:37:27.046Z,99923.56
2023-09-10T17:39:53.884Z,99931.00
2023-09-10T17:42:20.545Z,99932.59
2023-09-10T17:44:48.343Z,99931.66
2023-09-10T17:47:18.926Z,99924.81
2023-09-10T17:49:55.594Z,99933.59
2023-09-10T17:52:32.059Z,99927.09
2023-09-10T17:54:59.185Z,99937.47
2023-09-10T17:57:25.832Z,99930.31
2023-09-10T17:59:52.372Z,99931.31
2023-09-10T18:02:19.148Z,99935.63
2023-09-10T18:04:45.645Z,99936.22
2023-09-10T18:07:12.515Z,99944.41
2023-09-10T18:09:39.186Z,99938.81
2023-09-10T18:12:06.386Z,99944.47
2023-09-10T18:14:34.099Z,99946.78
2023-09-10T18:17:00.672Z,99946.16
2023-09-10T18:19:27.172Z,99948.81
2023-09-10T18:21:53.806Z,99948.13
2023-09-10T18:24:20.366Z,99951.06
2023-09-10T18:26:47.265Z,99956.13
2023-09-10T18:29:14.364Z,99953.88
2023-09-10T18:31:40.918Z,99960.31
2023-09-10T18:34:07.496Z,99960.50
2023-09-10T18:36:34.152Z,99959.16
2023-09-10T18:39:01.629Z,99971.56
2023-09-10T18:41:28.626Z,99972.13
2023-09-10T18:43:55.501Z,99968.13
2023-09-10T18:46:22.049Z,99970.19
2023-09-10T18:48:49.270Z,99969.75
2023-09-10T18:51:15.778Z,99969.16
2023-09-10T18:53:42.930Z,99971.69
2023-09-10T18:56:10.056Z,99977.13
2023-09-10T18:58:36.957Z,99976.81
2023-09-10T19:01:04.253Z,99968.16
2023-09-10T19:03:30.831Z,99972.88
2023-09-10T19:05:59.698Z,99966.91
2023-09-10T19:08:26.956Z,99965.53
2023-09-10T19:10:54.771Z,99968.53
2023-09-10T19:13:22.271Z,99968.72
2023-09-10T19:15:51.186Z,99963.00
2023-09-10T19:18:18.788Z,99964.50
2023-09-10T19:20:46.789Z,99966.03
2023-09-10T19:23:14.019Z,99964.00
2023-09-10T19:25:40.526Z,99967.88
2023-09-10T19:28:07.232Z,99963.81
2023-09-10T19:30:37.987Z,99966.72
2023-09-10T19:33:05.267Z,99965.53
2023-09-10T19:35:32.104Z,99975.50
2023-09-10T19:37:58.715Z,99977.69
2023-09-10T19:40:25.288Z,99980.56
2023-09-10T19:42:51.786Z,99979.06
2023-09-10T19:45:18.509Z,99976.28
2023-09-10T19:47:45.761Z,99977.59
2023-09-10T19:50:12.489Z,99985.31
2023-09-10T19:52:41.757Z,99982.78
2023-09-10T19:55:10.046Z,99978.75
2023-09-10T19:57:38.015Z,99985.34
2023-09-10T20:00:05.732Z,99980.56
2023-09-10T20:02:32.695Z,99980.66
2023-09-10T20:04:59.247Z,99981.16
2023-09-10T20:07:25.835Z,99978.75
2023-09-10T20:09:55.309Z,99984.44
2023-09-10T20:12:24.024Z,99981.19
2023-09-10T20:14:50.755Z,99981.63
2023-09-10T20:17:17.354Z,99980.50
2023-09-10T20:19:44.429Z,99973.25
2023-09-10T20:22:10.982Z,99975.75
2023-09-10T20:24:37.542Z,99976.97
2023-09-10T20:27:04.277Z,99980.66
2023-09-10T20:29:30.946Z,99978.25
2023-09-10T20:31:57.544Z,99981.50
2023-09-10T20:34:24.581Z,99984.41
2023-09-10T20:36:51.196Z,99980.75
2023-09-10T20:39:17.727Z,99981.97
2023-09-10T20:41:44.665Z,99990.78
2023-09-10T20:44:11.343Z,99987.63
2023-09-10T20:46:38.185Z,99988.88
2023-09-10T20:49:04.803Z,99987.31
2023-09-10T20:51:34.550Z,99985.31
2023-09-10T20:54:01.168Z,99984.91
2023-09-10T20:56:28.278Z,99984.91
2023-09-10T20:58:54.915Z,99986.59
2023-09-10T21:01:21.593Z,99987.41
2023-09-10T21:03:48.788Z,99975.28
2023-09-10T21:06:16.124Z,99987.38
2023-09-10T21:08:42.915Z,99991.47
2023-09-10T21:11:10.287Z,99988.66
2023-09-10T21:13:36.844Z,99983.84
2023-09-10T21:16:03.753Z,99987.91
2023-09-10T21:18:31.325Z,99985.09
2023-09-10T21:20:58.762Z,99985.50
2023-09-10T21:23:27.672Z,99987.16
2023-09-10T21:25:56.347Z,99983.53
2023-09-10T21:28:22.976Z,99983.56
2023-09-10T21:30:50.705Z,99982.78
2023-09-10T21:33:17.917Z,99980.75
2023-09-10T21:35:45.620Z,99977.97
2023-09-10T21:38:15.912Z,99990.13
2023-09-10T21:40:42.684Z,99988.94
2023-09-10T21:43:09.232Z,99982.09
2023-09-10T21:45:39.010Z,99986.13
2023-09-10T21:48:07.434Z,99982.94
2023-09-10T21:50:34.823Z,99987.41
2023-09-10T21:53:01.667Z,99981.34
2023-09-10T21:55:28.173Z,99983.41
2023-09-10T21:57:54.664Z,99981.00
2023-09-10T22:00:21.295Z,99975.38
2023-09-10T22:02:48.116Z,99987.50
2023-09-10T22:05:14.792Z,99984.66
2023-09-10T22:07:41.319Z,99981.44
2023-09-10T22:10:08.494Z,99971.41
2023-09-10T22:12:35.067Z,99973.03
2023-09-10T22:15:06.227Z,99969.00
2023-09-10T22:17:33.072Z,99967.03
2023-09-10T22:19:59.686Z,99967.03
2023-09-10T22:22:26.272Z,99970.66
2023-09-10T22:24:52.807Z,99970.25
2023-09-10T22:27:19.423Z,99973.47
2023-09-10T22:29:46.019Z,99967.47
2023-09-10T22:32:12.633Z,99967.84
2023-09-10T22:34:39.352Z,99965.44
2023-09-10T22:37:05.955Z,99967.47
2023-09-10T22:39:32.585Z,99969.88
2023-09-10T22:41:59.249Z,99965.03
2023-09-10T22:44:25.908Z,99971.91
2023-09-10T22:46:52.499Z,99959.03
2023-09-10T22:49:19.013Z,99971.53
2023-09-10T22:51:45.568Z,99966.31
2023-09-10T22:54:12.182Z,99964.69
2023-09-10T22:56:40.448Z,99966.31
2023-09-10T22:59:08.485Z,99963.91
2023-09-10T23:01:35.860Z,99962.31
